createdAt,value
2022-08-09T00:01:40.319Z,100963.81
2022-08-09T00:04:35.403Z,100955.97
2022-08-09T00:07:10.483Z,100963.03
2022-08-09T00:09:40.481Z,100962.38
2022-08-09T00:12:22.388Z,100958.53
2022-08-09T00:14:55.955Z,100958.44
2022-08-09T00:18:10.433Z,100958.84
2022-08-09T00:20:15.275Z,100965.66
2022-08-09T00:22:44.909Z,100964.44
2022-08-09T00:25:23.360Z,100964.78
2022-08-09T00:28:03.927Z,100961.81
2022-08-09T00:30:35.472Z,100955.78
2022-08-09T00:33:03.861Z,100956.63
2022-08-09T00:35:43.094Z,100949.50
2022-08-09T00:38:15.256Z,100946.75
2022-08-09T00:40:53.280Z,100942.31
2022-08-09T00:44:10.786Z,100951.28
2022-08-09T00:46:28.394Z,100946.44
2022-08-09T00:49:01.242Z,100953.47
2022-08-09T00:51:34.094Z,100956.16
2022-08-09T00:54:22.963Z,100949.41
2022-08-09T00:57:00.205Z,100945.97
2022-08-09T00:59:46.313Z,100945.66
2022-08-09T01:02:21.553Z,100943.03
2022-08-09T01:05:22.031Z,100941.78
2022-08-09T01:08:13.852Z,100936.25
2022-08-09T01:10:53.671Z,100935.84
2022-08-09T01:13:41.999Z,100936.25
2022-08-09T01:16:24.964Z,100933.50
2022-08-09T01:19:02.090Z,100935.72
2022-08-09T01:21:53.556Z,100930.22
2022-08-09T01:24:56.707Z,100936.41
2022-08-09T01:27:29.236Z,100933.91
2022-08-09T01:30:02.373Z,100939.78
2022-08-09T01:32:45.993Z,100939.97
2022-08-09T01:35:37.174Z,100943.44
2022-08-09T01:38:15.059Z,100947.66
2022-08-09T01:41:27.401Z,100955.88
2022-08-09T01:44:01.520Z,100950.88
2022-08-09T01:46:33.962Z,100952.88
2022-08-09T01:49:10.045Z,100961.38
2022-08-09T01:51:44.654Z,100960.81
2022-08-09T01:54:40.412Z,100961.78
2022-08-09T01:57:20.538Z,100972.59
2022-08-09T01:59:59.889Z,100968.59
2022-08-09T02:02:33.210Z,100965.13
2022-08-09T02:05:15.330Z,100969.72
2022-08-09T02:08:41.402Z,100973.22
2022-08-09T02:10:50.879Z,100969.91
2022-08-09T02:13:26.047Z,100969.75
2022-08-09T02:16:08.002Z,100964.59
2022-08-09T02:18:42.826Z,100973.78
2022-08-09T02:21:22.086Z,100977.75
2022-08-09T02:23:56.509Z,100988.50
2022-08-09T02:26:29.382Z,100987.19
2022-08-09T02:29:01.882Z,100981.69
2022-08-09T02:31:38.436Z,100985.22
2022-08-09T02:34:41.036Z,100993.41
2022-08-09T02:37:14.479Z,100988.66
2022-08-09T02:39:49.791Z,100980.50
2022-08-09T02:42:28.511Z,100984.53
2022-08-09T02:45:08.254Z,100971.28
2022-08-09T02:47:57.717Z,100976.19
2022-08-09T02:50:33.412Z,100966.84
2022-08-09T02:53:08.698Z,100965.47
2022-08-09T02:55:57.569Z,100969.66
2022-08-09T02:58:36.916Z,100962.09
2022-08-09T03:01:11.099Z,100955.81
2022-08-09T03:04:17.914Z,100960.41
2022-08-09T03:06:36.159Z,100962.81
2022-08-09T03:09:06.676Z,100961.53
2022-08-09T03:12:09.850Z,100962.72
2022-08-09T03:14:28.260Z,100964.38
2022-08-09T03:16:59.242Z,100960.25
2022-08-09T03:19:58.680Z,100954.38
2022-08-09T03:22:30.026Z,100949.72
2022-08-09T03:25:06.285Z,100944.44
2022-08-09T03:27:52.172Z,100944.25
2022-08-09T03:30:29.377Z,100948.94
2022-08-09T03:33:17.529Z,100942.31
2022-08-09T03:36:13.003Z,100944.84
2022-08-09T03:38:41.791Z,100945.94
2022-08-09T03:41:18.688Z,100948.38
2022-08-09T03:44:03.030Z,100948.84
2022-08-09T03:46:37.082Z,100947.47
2022-08-09T03:49:08.973Z,100952.69
2022-08-09T03:51:56.868Z,100957.50
2022-08-09T03:54:38.900Z,100960.94
2022-08-09T03:57:19.966Z,100965.69
2022-08-09T03:59:53.733Z,100973.38
2022-08-09T04:02:28.309Z,100969.09
2022-08-09T04:05:05.844Z,100970.69
2022-08-09T04:07:52.440Z,100964.53
2022-08-09T04:10:28.764Z,100973.28
2022-08-09T04:13:04.374Z,100973.38
2022-08-09T04:15:52.174Z,100981.97
2022-08-09T04:18:22.226Z,100982.41
2022-08-09T04:20:53.795Z,100985.16
2022-08-09T04:23:24.554Z,100983.44
2022-08-09T04:25:55.877Z,100997.38
2022-08-09T04:28:33.483Z,100992.31
2022-08-09T04:31:07.960Z,100995.13
2022-08-09T04:33:47.401Z,100996.28
2022-08-09T04:36:30.344Z,100993.28
2022-08-09T04:39:05.092Z,101003.88
2022-08-09T04:41:33.917Z,101003.28
2022-08-09T04:44:14.501Z,101002.84
2022-08-09T04:46:58.539Z,101004.09
2022-08-09T04:49:53.071Z,101006.69
2022-08-09T04:52:26.804Z,101008.94
2022-08-09T04:55:04.703Z,101010.75
2022-08-09T04:57:53.889Z,101005.16
2022-08-09T05:00:22.956Z,101007.84
2022-08-09T05:02:52.801Z,101015.72
2022-08-09T05:05:32.471Z,101020.72
2022-08-09T05:08:13.871Z,101030.53
2022-08-09T05:10:44.825Z,101023.41
2022-08-09T05:13:14.209Z,101028.63
2022-08-09T05:15:52.122Z,101026.81
2022-08-09T05:18:50.834Z,101033.28
2022-08-09T05:21:24.432Z,101039.28
2022-08-09T05:24:00.923Z,101036.97
2022-08-09T05:26:36.728Z,101039.84
2022-08-09T05:29:17.464Z,101040.84
2022-08-09T05:31:52.129Z,101044.59
2022-08-09T05:34:30.597Z,101044.81
2022-08-09T05:37:07.375Z,101042.19
2022-08-09T05:39:44.334Z,101042.81
2022-08-09T05:42:20.622Z,101046.13
2022-08-09T05:44:52.251Z,101040.47
2022-08-09T05:47:22.692Z,101043.06
2022-08-09T05:50:23.498Z,101052.19
2022-08-09T05:52:44.361Z,101045.63
2022-08-09T05:55:20.334Z,101045.41
2022-08-09T05:57:56.543Z,101041.88
2022-08-09T06:00:30.287Z,101043.22
2022-08-09T06:03:01.117Z,101039.56
2022-08-09T06:05:56.883Z,101041.16
2022-08-09T06:08:24.529Z,101039.38
2022-08-09T06:10:56.016Z,101038.84
2022-08-09T06:13:25.368Z,101048.31
2022-08-09T06:15:56.870Z,101042.50
2022-08-09T06:18:25.881Z,101052.03
2022-08-09T06:20:58.342Z,101048.72
2022-08-09T06:23:58.724Z,101045.69
2022-08-09T06:26:20.911Z,101049.56
2022-08-09T06:29:00.330Z,101037.41
2022-08-09T06:31:39.225Z,101046.28
2022-08-09T06:34:09.508Z,101038.19
2022-08-09T06:36:37.780Z,101044.13
2022-08-09T06:39:12.942Z,101041.97
2022-08-09T06:42:09.352Z,101046.28
2022-08-09T06:44:32.940Z,101046.94
2022-08-09T06:47:01.915Z,101051.84
2022-08-09T06:50:11.433Z,101053.63
2022-08-09T06:52:18.915Z,101053.63
2022-08-09T06:54:51.673Z,101053.50
2022-08-09T06:57:25.994Z,101052.72
2022-08-09T07:00:51.495Z,101063.94
2022-08-09T07:03:00.816Z,101067.97
2022-08-09T07:06:02.240Z,101066.41
2022-08-09T07:08:22.438Z,101070.97
2022-08-09T07:10:52.936Z,101074.28
2022-08-09T07:13:28.185Z,101074.00
2022-08-09T07:16:40.354Z,101081.88
2022-08-09T07:18:47.316Z,101073.63
2022-08-09T07:21:15.945Z,101074.84
2022-08-09T07:23:56.625Z,101077.16
2022-08-09T07:26:26.826Z,101078.72
2022-08-09T07:29:08.917Z,101071.41
2022-08-09T07:31:45.247Z,101077.94
2022-08-09T07:34:20.108Z,101075.63
2022-08-09T07:36:50.422Z,101079.50
2022-08-09T07:39:40.241Z,101085.44
2022-08-09T07:42:10.071Z,101086.34
2022-08-09T07:44:51.113Z,101090.13
2022-08-09T07:47:39.493Z,101086.34
2022-08-09T07:50:10.814Z,101084.06
2022-08-09T07:52:43.113Z,101085.16
2022-08-09T07:55:11.542Z,101075.44
2022-08-09T07:57:46.490Z,101090.41
2022-08-09T08:00:20.713Z,101083.44
2022-08-09T08:03:08.069Z,101087.38
2022-08-09T08:05:53.708Z,101086.88
2022-08-09T08:09:01.457Z,101083.84
2022-08-09T08:12:11.480Z,101082.47
2022-08-09T08:14:02.684Z,101087.44
2022-08-09T08:16:32.531Z,101081.66
2022-08-09T08:19:04.646Z,101083.47
2022-08-09T08:21:32.826Z,101078.84
2022-08-09T08:24:11.806Z,101080.75
2022-08-09T08:26:41.963Z,101073.97
2022-08-09T08:29:28.605Z,101076.22
2022-08-09T08:32:08.465Z,101084.41
2022-08-09T08:34:41.382Z,101081.97
2022-08-09T08:37:14.299Z,101079.09
2022-08-09T08:39:44.560Z,101078.25
2022-08-09T08:42:14.339Z,101073.03
2022-08-09T08:44:46.301Z,101085.63
2022-08-09T08:47:16.164Z,101071.53
2022-08-09T08:49:47.970Z,101077.47
2022-08-09T08:52:53.108Z,101081.81
2022-08-09T08:55:09.710Z,101083.59
2022-08-09T08:57:38.232Z,101075.22
2022-08-09T09:00:17.062Z,101083.91
2022-08-09T09:03:08.320Z,101080.41
2022-08-09T09:06:00.755Z,101074.06
2022-08-09T09:08:37.826Z,101085.44
2022-08-09T09:11:17.482Z,101072.56
2022-08-09T09:13:56.743Z,101064.03
2022-08-09T09:16:35.747Z,101071.59
2022-08-09T09:19:37.598Z,101079.06
2022-08-09T09:22:11.491Z,101072.81
2022-08-09T09:24:59.112Z,101074.47
2022-08-09T09:28:05.841Z,101072.81
2022-08-09T09:30:41.035Z,101068.97
2022-08-09T09:33:15.990Z,101073.84
2022-08-09T09:36:01.723Z,101060.03
2022-08-09T09:38:50.433Z,101065.03
2022-08-09T09:41:27.848Z,101063.00
2022-08-09T09:44:12.960Z,101053.97
2022-08-09T09:46:45.897Z,101056.59
2022-08-09T09:49:31.695Z,101056.41
2022-08-09T09:52:16.555Z,101058.97
2022-08-09T09:55:24.062Z,101045.94
2022-08-09T09:58:16.444Z,101055.91
2022-08-09T10:00:53.768Z,101044.16
2022-08-09T10:03:44.062Z,101038.31
2022-08-09T10:06:13.883Z,101053.44
2022-08-09T10:08:55.035Z,101049.97
2022-08-09T10:12:00.587Z,101049.84
2022-08-09T10:14:30.514Z,101049.53
2022-08-09T10:17:17.167Z,101044.13
2022-08-09T10:19:53.132Z,101039.69
2022-08-09T10:22:34.782Z,101038.00
2022-08-09T10:25:12.406Z,101042.09
2022-08-09T10:27:45.252Z,101048.84
2022-08-09T10:34:04.432Z,101049.38
2022-08-09T10:36:09.422Z,101039.91
2022-08-09T10:38:56.801Z,101038.81
2022-08-09T10:41:28.495Z,101031.78
2022-08-09T10:43:59.529Z,101043.13
2022-08-09T10:46:52.349Z,101040.00
2022-08-09T10:50:15.083Z,101017.03
2022-08-09T10:53:19.462Z,101028.44
2022-08-09T10:55:57.850Z,101029.50
2022-08-09T10:58:37.479Z,101023.00
2022-08-09T11:03:06.856Z,101029.47
2022-08-09T11:04:10.181Z,101017.81
2022-08-09T11:07:00.087Z,101020.38
2022-08-09T11:09:38.344Z,101018.81
2022-08-09T11:16:33.443Z,101013.66
2022-08-09T11:19:10.666Z,101015.81
2022-08-09T11:22:10.322Z,100999.84
2022-08-09T11:25:18.666Z,101008.00
2022-08-09T11:28:09.303Z,100997.13
2022-08-09T11:30:48.074Z,101002.69
2022-08-09T11:33:19.388Z,101005.69
2022-08-09T11:35:57.125Z,100999.19
2022-08-09T11:38:33.235Z,100992.47
2022-08-09T11:41:13.106Z,100991.22
2022-08-09T11:43:52.445Z,100984.91
2022-08-09T11:46:32.976Z,100991.34
2022-08-09T11:49:05.275Z,100988.38
2022-08-09T11:53:04.112Z,100996.69
2022-08-09T11:55:52.369Z,100983.59
2022-08-09T11:58:33.950Z,100979.75
2022-08-09T12:01:15.410Z,100988.97
2022-08-09T12:04:09.645Z,100992.81
2022-08-09T12:06:56.589Z,100986.56
2022-08-09T12:09:33.605Z,100980.91
2022-08-09T12:12:13.151Z,100982.91
2022-08-09T12:15:08.187Z,100978.44
2022-08-09T12:17:44.329Z,100970.75
2022-08-09T12:20:24.063Z,100963.41
2022-08-09T12:22:56.134Z,100964.72
2022-08-09T12:25:35.660Z,100951.56
2022-08-09T12:29:10.808Z,100952.88
2022-08-09T12:31:10.789Z,100954.56
2022-08-09T12:34:01.016Z,100953.97
2022-08-09T12:36:33.635Z,100967.19
2022-08-09T12:39:02.577Z,100959.03
2022-08-09T12:41:39.644Z,100943.00
2022-08-09T12:44:10.379Z,100948.84
2022-08-09T12:46:48.831Z,100951.56
2022-08-09T12:49:20.865Z,100942.38
2022-08-09T12:52:01.709Z,100948.06
2022-08-09T12:55:03.205Z,100938.59
2022-08-09T12:57:47.332Z,100930.88
2022-08-09T13:00:23.447Z,100929.50
2022-08-09T13:03:02.571Z,100923.13
2022-08-09T13:05:51.575Z,100919.66
2022-08-09T13:08:41.013Z,100920.69
2022-08-09T13:11:25.982Z,100925.50
2022-08-09T13:14:41.102Z,100920.69
2022-08-09T13:16:58.510Z,100920.81
2022-08-09T13:20:09.305Z,100917.13
2022-08-09T13:23:02.190Z,100907.28
2022-08-09T13:25:24.650Z,100902.09
2022-08-09T13:27:55.656Z,100895.72
2022-08-09T13:30:50.004Z,100897.34
2022-08-09T13:33:24.837Z,100904.16
2022-08-09T13:36:38.708Z,100895.34
2022-08-09T13:39:08.150Z,100891.78
2022-08-09T13:41:57.506Z,100888.81
2022-08-09T13:44:29.831Z,100887.50
2022-08-09T13:47:29.789Z,100884.09
2022-08-09T13:49:57.606Z,100881.63
2022-08-09T13:52:31.135Z,100878.56
2022-08-09T13:55:05.084Z,100885.41
2022-08-09T13:57:55.992Z,100874.06
2022-08-09T14:00:29.625Z,100878.47
2022-08-09T14:03:03.155Z,100880.44
2022-08-09T14:05:59.404Z,100868.63
2022-08-09T14:08:31.736Z,100866.09
2022-08-09T14:11:01.246Z,100867.41
2022-08-09T14:14:22.087Z,100867.91
2022-08-09T14:16:28.175Z,100862.25
2022-08-09T14:18:58.357Z,100858.91
2022-08-09T14:21:29.266Z,100854.66
2022-08-09T14:24:10.281Z,100858.22
2022-08-09T14:26:51.731Z,100863.72
2022-08-09T14:30:03.891Z,100861.06
2022-08-09T14:32:11.169Z,100853.75
2022-08-09T14:34:41.548Z,100852.00
2022-08-09T14:37:10.015Z,100849.38
2022-08-09T14:39:46.842Z,100845.75
2022-08-09T14:42:30.232Z,100848.69
2022-08-09T14:46:46.420Z,100845.91
2022-08-09T14:47:56.845Z,100856.63
2022-08-09T14:50:25.924Z,100837.28
2022-08-09T14:52:55.847Z,100837.13
2022-08-09T14:55:24.020Z,100833.78
2022-08-09T14:57:53.443Z,100834.75
2022-08-09T15:00:22.670Z,100829.50
2022-08-09T15:02:52.234Z,100837.06
2022-08-09T15:05:20.904Z,100827.75
2022-08-09T15:07:55.971Z,100837.94
2022-08-09T15:10:31.484Z,100834.22
2022-08-09T15:13:03.177Z,100834.13
2022-08-09T15:15:34.474Z,100831.06
2022-08-09T15:18:14.121Z,100828.34
2022-08-09T15:21:57.884Z,100828.59
2022-08-09T15:24:09.058Z,100831.84
2022-08-09T15:26:30.918Z,100826.38
2022-08-09T15:29:04.500Z,100820.88
2022-08-09T15:31:41.314Z,100816.66
2022-08-09T15:34:31.163Z,100817.84
2022-08-09T15:37:03.873Z,100814.03
2022-08-09T15:39:34.772Z,100812.38
2022-08-09T15:42:18.874Z,100816.09
2022-08-09T15:44:47.692Z,100816.38
2022-08-09T15:47:21.735Z,100811.47
2022-08-09T15:50:04.438Z,100811.78
2022-08-09T15:52:39.091Z,100813.09
2022-08-09T15:55:24.362Z,100813.75
2022-08-09T15:57:52.553Z,100812.72
2022-08-09T16:00:26.206Z,100806.41
2022-08-09T16:02:56.720Z,100811.16
2022-08-09T16:05:47.684Z,100807.53
2022-08-09T16:08:30.996Z,100803.06
2022-08-09T16:11:04.021Z,100808.72
2022-08-09T16:14:02.930Z,100802.91
2022-08-09T16:16:28.282Z,100810.06
2022-08-09T16:18:56.945Z,100802.31
2022-08-09T16:21:26.371Z,100798.69
2022-08-09T16:24:02.705Z,100802.59
2022-08-09T16:26:34.629Z,100805.84
2022-08-09T16:29:12.408Z,100798.81
2022-08-09T16:32:18.317Z,100803.72
2022-08-09T16:34:53.455Z,100803.50
2022-08-09T16:37:54.810Z,100799.25
2022-08-09T16:40:12.541Z,100803.84
2022-08-09T16:42:45.177Z,100807.03
2022-08-09T16:45:20.280Z,100811.47
2022-08-09T16:48:40.999Z,100809.25
2022-08-09T16:50:40.691Z,100808.25
2022-08-09T16:53:32.356Z,100810.16
2022-08-09T16:56:09.918Z,100814.75
2022-08-09T16:58:49.862Z,100814.44
2022-08-09T17:01:23.592Z,100820.47
2022-08-09T17:03:54.721Z,100827.03
2022-08-09T17:06:31.675Z,100831.97
2022-08-09T17:09:43.520Z,100822.09
2022-08-09T17:11:52.597Z,100822.59
2022-08-09T17:14:27.346Z,100830.13
2022-08-09T17:17:00.937Z,100827.03
2022-08-09T17:20:04.933Z,100828.44
2022-08-09T17:22:28.916Z,100844.84
2022-08-09T17:25:03.400Z,100842.88
2022-08-09T17:27:38.093Z,100853.66
2022-08-09T17:30:12.983Z,100846.41
2022-08-09T17:32:44.251Z,100852.13
2022-08-09T17:35:15.233Z,100855.97
2022-08-09T17:38:02.722Z,100861.34
2022-08-09T17:40:35.604Z,100870.22
2022-08-09T17:43:33.006Z,100867.19
2022-08-09T17:46:05.826Z,100875.66
2022-08-09T17:48:38.710Z,100865.22
2022-08-09T17:51:18.544Z,100872.41
2022-08-09T17:53:52.904Z,100871.13
2022-08-09T17:56:28.839Z,100874.97
2022-08-09T17:59:11.887Z,100884.50
2022-08-09T18:02:07.757Z,100879.13
2022-08-09T18:04:33.978Z,100894.88
2022-08-09T18:07:07.866Z,100887.28
2022-08-09T18:09:41.413Z,100895.38
2022-08-09T18:12:19.771Z,100896.31
2022-08-09T18:14:54.660Z,100895.38
2022-08-09T18:18:02.577Z,100899.25
2022-08-09T18:20:55.365Z,100907.28
2022-08-09T18:23:07.250Z,100919.59
2022-08-09T18:25:50.827Z,100918.56
2022-08-09T18:30:42.989Z,100923.22
2022-08-09T18:31:14.842Z,100922.28
2022-08-09T18:33:54.026Z,100922.63
2022-08-09T18:36:26.078Z,100929.09
2022-08-09T18:39:02.704Z,100930.00
2022-08-09T18:41:34.235Z,100928.75
2022-08-09T18:44:13.588Z,100936.69
2022-08-09T18:46:47.709Z,100934.69
2022-08-09T18:49:23.494Z,100939.41
2022-08-09T18:51:55.192Z,100944.16
2022-08-09T18:54:29.974Z,100945.97
2022-08-09T18:57:06.113Z,100951.97
2022-08-09T18:59:37.387Z,100964.28
2022-08-09T19:02:19.214Z,100953.91
2022-08-09T19:05:04.126Z,100958.59
2022-08-09T19:07:37.218Z,100975.25
2022-08-09T19:10:17.326Z,100977.56
2022-08-09T19:12:55.941Z,100978.75
2022-08-09T19:15:36.099Z,100977.75
2022-08-09T19:18:06.538Z,100980.25
2022-08-09T19:20:45.762Z,100984.44
2022-08-09T19:24:35.953Z,100987.47
2022-08-09T19:26:14.221Z,100989.88
2022-08-09T19:28:48.808Z,100985.41
2022-08-09T19:35:58.555Z,100984.06
2022-08-09T19:38:27.967Z,100993.50
2022-08-09T19:41:02.095Z,100997.50
2022-08-09T19:43:58.032Z,101000.84
2022-08-09T19:46:34.251Z,100997.50
2022-08-09T19:50:07.373Z,101003.59
2022-08-09T19:51:55.707Z,101001.09
2022-08-09T19:54:26.671Z,101000.69
2022-08-09T19:56:56.556Z,100995.41
2022-08-09T19:59:58.515Z,101005.44
2022-08-09T20:04:11.317Z,101001.72
2022-08-09T20:05:10.286Z,101000.78
2022-08-09T20:07:59.578Z,101007.28
2022-08-09T20:10:36.842Z,101005.25
2022-08-09T20:13:07.129Z,101007.63
2022-08-09T20:16:32.901Z,101016.03
2022-08-09T20:18:28.053Z,101011.19
2022-08-09T20:20:57.696Z,101018.31
2022-08-09T20:23:39.245Z,101013.38
2022-08-09T20:26:13.228Z,101013.25
2022-08-09T20:28:47.885Z,101008.84
2022-08-09T20:31:17.768Z,101012.06
2022-08-09T20:33:52.400Z,101021.97
2022-08-09T20:36:27.450Z,101017.47
2022-08-09T20:40:13.096Z,101023.00
2022-08-09T20:41:44.999Z,101017.38
2022-08-09T20:44:26.806Z,101020.56
2022-08-09T20:46:57.941Z,101024.88
2022-08-09T20:49:28.624Z,101025.13
2022-08-09T20:51:57.170Z,101024.00
2022-08-09T20:54:29.910Z,101016.84
2022-08-09T20:56:58.220Z,101015.53
2022-08-09T21:00:20.025Z,101027.44
2022-08-09T21:02:18.653Z,101025.13
2022-08-09T21:05:57.615Z,101030.97
2022-08-09T21:07:40.197Z,101034.16
2022-08-09T21:10:11.519Z,101034.63
2022-08-09T21:12:40.570Z,101030.19
2022-08-09T21:15:34.597Z,101031.28
2022-08-09T21:18:22.256Z,101034.56
2022-08-09T21:20:54.612Z,101032.69
2022-08-09T21:23:36.008Z,101030.88
2022-08-09T21:26:15.636Z,101025.97
2022-08-09T21:28:51.778Z,101037.25
2022-08-09T21:31:49.270Z,101039.59
2022-08-09T21:34:16.189Z,101039.91
2022-08-09T21:36:57.302Z,101051.34
2022-08-09T21:39:28.127Z,101042.91
2022-08-09T21:42:11.272Z,101042.81
2022-08-09T21:44:42.805Z,101048.59
2022-08-09T21:47:17.440Z,101057.75
2022-08-09T21:49:48.651Z,101051.34
2022-08-09T21:52:20.685Z,101053.22
2022-08-09T21:55:03.033Z,101053.75
2022-08-09T21:57:39.636Z,101053.84
2022-08-09T22:00:32.377Z,101056.97
2022-08-09T22:03:05.834Z,101056.41
2022-08-09T22:05:37.077Z,101051.81
2022-08-09T22:08:12.980Z,101060.84
2022-08-09T22:11:48.991Z,101058.34
2022-08-09T22:13:37.573Z,101062.16
2022-08-09T22:16:09.124Z,101062.72
2022-08-09T22:18:52.981Z,101062.47
2022-08-09T22:21:45.350Z,101068.25
2022-08-09T22:24:24.089Z,101071.34
2022-08-09T22:26:54.460Z,101072.66
2022-08-09T22:29:28.913Z,101071.78
2022-08-09T22:32:07.649Z,101070.34
2022-08-09T22:35:02.702Z,101081.38
2022-08-09T22:37:40.590Z,101077.19
2022-08-09T22:40:19.936Z,101078.69
2022-08-09T22:42:49.231Z,101080.50
2022-08-09T22:48:13.475Z,101083.91
2022-08-09T22:48:17.932Z,101087.03
2022-08-09T22:50:54.101Z,101079.44
2022-08-09T22:53:22.869Z,101073.16
2022-08-09T22:56:29.531Z,101082.19
2022-08-09T22:58:39.708Z,101081.19
2022-08-09T23:01:08.828Z,101075.16
2022-08-09T23:04:04.301Z,101077.16
2022-08-09T23:06:35.117Z,101081.63
2022-08-09T23:09:06.546Z,101089.09
2022-08-09T23:11:35.264Z,101085.59
2022-08-09T23:14:10.153Z,101081.63
2022-08-09T23:16:46.020Z,101089.38
2022-08-09T23:19:14.250Z,101087.19
2022-08-09T23:21:43.255Z,101094.03
2022-08-09T23:24:11.701Z,101102.56
2022-08-09T23:26:40.670Z,101097.78
2022-08-09T23:29:14.172Z,101103.69
2022-08-09T23:31:42.900Z,101099.78
2022-08-09T23:34:11.262Z,101104.00
2022-08-09T23:36:39.563Z,101098.44
2022-08-09T23:39:08.580Z,101097.63
2022-08-09T23:41:36.879Z,101106.38
2022-08-09T23:44:05.803Z,101102.56
2022-08-09T23:46:35.150Z,101098.44
2022-08-09T23:49:03.313Z,101093.41
2022-08-09T23:51:31.710Z,101092.53
2022-08-09T23:54:02.621Z,101087.03
2022-08-09T23:56:52.631Z,101088.41
2022-08-09T23:59:22.571Z,101090.31
